createdAt,value
2019-05-06T00:00:01.515Z,82.15
2019-05-06T00:01:01.504Z,82.15
2019-05-06T00:02:01.499Z,82.36
2019-05-06T00:03:01.499Z,81.99
2019-05-06T00:04:01.486Z,82.57
2019-05-06T00:05:03.995Z,83.19
2019-05-06T00:06:01.463Z,83.33
2019-05-06T00:07:01.438Z,84.06
2019-05-06T00:08:03.753Z,83.85
2019-05-06T00:09:01.419Z,83.64
2019-05-06T00:10:01.410Z,83.85
2019-05-06T00:11:01.421Z,84.78
2019-05-06T00:12:03.904Z,84.27
2019-05-06T00:13:01.380Z,84.06
2019-05-06T00:14:03.765Z,83.37
2019-05-06T00:15:03.752Z,84.30
2019-05-06T00:16:01.340Z,84.30
2019-05-06T00:17:03.728Z,84.92
2019-05-06T00:18:01.321Z,84.61
2019-05-06T00:19:01.320Z,84.51
2019-05-06T00:20:04.111Z,83.89
2019-05-06T00:21:01.287Z,84.30
2019-05-06T00:22:01.307Z,84.82
2019-05-06T00:23:01.277Z,84.92
2019-05-06T00:24:01.254Z,84.86
2019-05-06T00:25:01.265Z,84.96
2019-05-06T00:26:01.237Z,85.06
2019-05-06T00:27:01.227Z,84.03
2019-05-06T00:28:01.212Z,84.44
2019-05-06T00:29:01.206Z,84.55
2019-05-06T00:30:01.222Z,84.86
2019-05-06T00:31:12.193Z,84.65
2019-05-06T00:32:04.289Z,83.51
2019-05-06T00:33:01.171Z,84.44
2019-05-06T00:34:01.158Z,85.06
2019-05-06T00:35:01.136Z,85.06
2019-05-06T00:36:01.146Z,85.06
2019-05-06T00:37:01.124Z,86.35
2019-05-06T00:38:01.141Z,85.73
2019-05-06T00:39:01.098Z,86.00
2019-05-06T00:40:01.088Z,86.52
2019-05-06T00:41:01.072Z,86.25
2019-05-06T00:42:01.063Z,85.69
2019-05-06T00:43:01.049Z,86.25
2019-05-06T00:44:01.057Z,86.25
2019-05-06T00:45:01.049Z,85.79
2019-05-06T00:46:01.023Z,86.31
2019-05-06T00:47:01.008Z,86.00
2019-05-06T00:48:01.003Z,86.04
2019-05-06T00:49:01.002Z,86.25
2019-05-06T00:50:00.981Z,86.04
2019-05-06T00:51:00.971Z,86.31
2019-05-06T00:52:00.952Z,86.25
2019-05-06T00:53:00.942Z,86.15
2019-05-06T00:54:00.948Z,86.35
2019-05-06T00:55:00.929Z,86.35
2019-05-06T00:56:00.912Z,86.55
2019-05-06T00:57:00.901Z,86.35
2019-05-06T00:58:00.902Z,86.39
2019-05-06T00:59:00.904Z,85.97
2019-05-06T01:00:00.869Z,86.08
2019-05-06T01:01:00.865Z,86.70
2019-05-06T01:02:00.852Z,86.18
2019-05-06T01:03:00.837Z,85.97
2019-05-06T01:04:00.831Z,85.97
2019-05-06T01:05:00.829Z,86.29
2019-05-06T01:06:00.808Z,86.18
2019-05-06T01:07:00.792Z,86.60
2019-05-06T01:08:00.781Z,85.77
2019-05-06T01:09:00.772Z,86.18
2019-05-06T01:10:00.781Z,85.81
2019-05-06T01:11:00.757Z,86.12
2019-05-06T01:12:00.737Z,86.64
2019-05-06T01:13:00.752Z,85.50
2019-05-06T01:14:00.718Z,85.60
2019-05-06T01:15:00.711Z,86.54
2019-05-06T01:16:00.698Z,86.85
2019-05-06T01:17:00.687Z,86.22
2019-05-06T01:18:00.674Z,87.16
2019-05-06T01:19:00.679Z,86.64
2019-05-06T01:20:00.678Z,86.33
2019-05-06T01:21:00.645Z,85.60
2019-05-06T01:22:00.634Z,85.08
2019-05-06T01:23:00.626Z,86.22
2019-05-06T01:24:00.611Z,87.26
2019-05-06T01:25:00.629Z,87.47
2019-05-06T01:26:00.588Z,87.51
2019-05-06T01:27:00.578Z,86.95
2019-05-06T01:28:00.566Z,87.26
2019-05-06T01:29:00.554Z,87.30
2019-05-06T01:30:00.547Z,87.37
2019-05-06T01:31:00.547Z,87.57
2019-05-06T01:32:00.523Z,87.88
2019-05-06T01:33:00.519Z,87.26
2019-05-06T01:34:00.502Z,87.37
2019-05-06T01:35:00.536Z,87.22
2019-05-06T01:36:00.481Z,87.16
2019-05-06T01:37:00.472Z,87.26
2019-05-06T01:38:00.459Z,87.88
2019-05-06T01:39:00.450Z,87.51
2019-05-06T01:40:00.439Z,87.26
2019-05-06T01:41:00.464Z,87.47
2019-05-06T01:42:00.421Z,87.37
2019-05-06T01:43:00.403Z,86.88
2019-05-06T01:44:00.400Z,87.26
2019-05-06T01:45:00.383Z,88.20
2019-05-06T01:46:00.383Z,87.16
2019-05-06T01:47:00.375Z,86.57
2019-05-06T01:48:00.351Z,87.19
2019-05-06T01:49:00.342Z,87.51
2019-05-06T01:50:00.339Z,86.16
2019-05-06T01:51:00.318Z,86.26
2019-05-06T01:52:00.320Z,86.78
2019-05-06T01:53:00.295Z,86.68
2019-05-06T01:54:00.284Z,86.57
2019-05-06T01:55:00.276Z,86.16
2019-05-06T01:56:00.275Z,86.05
2019-05-06T01:57:00.252Z,85.85
2019-05-06T01:58:00.260Z,86.41
2019-05-06T01:59:00.234Z,86.82
2019-05-06T02:00:00.231Z,85.88
2019-05-06T02:01:00.231Z,86.61
2019-05-06T02:02:01.313Z,87.24
2019-05-06T02:03:00.205Z,87.03
2019-05-06T02:04:00.178Z,86.19
2019-05-06T02:05:00.182Z,86.61
2019-05-06T02:06:00.162Z,87.45
2019-05-06T02:07:00.146Z,87.45
2019-05-06T02:08:00.136Z,86.82
2019-05-06T02:09:00.121Z,86.61
2019-05-06T02:10:00.122Z,87.13
2019-05-06T02:11:00.105Z,87.65
2019-05-06T02:12:00.093Z,86.76
2019-05-06T02:13:00.093Z,86.82
2019-05-06T02:14:00.096Z,88.73
2019-05-06T02:15:00.057Z,89.36
2019-05-06T02:16:00.044Z,88.79
2019-05-06T02:17:00.032Z,89.04
2019-05-06T02:18:00.023Z,88.79
2019-05-06T02:19:00.012Z,88.73
2019-05-06T02:20:00.016Z,89.15
2019-05-06T02:21:00.008Z,88.52
2019-05-06T02:21:59.981Z,87.27
2019-05-06T02:22:59.989Z,88.62
2019-05-06T02:23:59.961Z,88.21
2019-05-06T02:24:59.965Z,88.31
2019-05-06T02:25:59.935Z,88.42
2019-05-06T02:26:59.930Z,88.31
2019-05-06T02:27:59.922Z,88.31
2019-05-06T02:28:59.918Z,88.94
2019-05-06T02:29:59.891Z,90.08
2019-05-06T02:30:59.886Z,90.29
2019-05-06T02:32:15.782Z,90.19
2019-05-06T02:33:00.866Z,89.98
2019-05-06T02:33:59.863Z,89.87
2019-05-06T02:34:59.838Z,90.08
2019-05-06T02:35:59.841Z,89.98
2019-05-06T02:36:59.815Z,90.39
2019-05-06T02:37:59.805Z,90.29
2019-05-06T02:38:59.807Z,90.39
2019-05-06T02:39:59.784Z,90.39
2019-05-06T02:40:59.780Z,90.29
2019-05-06T02:41:59.764Z,90.39
2019-05-06T02:43:02.977Z,89.77
2019-05-06T02:43:59.753Z,89.04
2019-05-06T02:44:59.738Z,89.56
2019-05-06T02:45:59.737Z,89.94
2019-05-06T02:47:02.714Z,90.14
2019-05-06T02:47:59.700Z,90.66
2019-05-06T02:48:59.689Z,90.70
2019-05-06T02:49:59.677Z,90.35
2019-05-06T02:50:59.682Z,90.25
2019-05-06T02:52:02.801Z,90.56
2019-05-06T02:53:02.514Z,90.77
2019-05-06T02:53:59.638Z,90.77
2019-05-06T02:54:59.633Z,90.56
2019-05-06T02:55:59.613Z,90.56
2019-05-06T02:56:59.603Z,90.25
2019-05-06T02:58:02.710Z,90.04
2019-05-06T02:58:59.593Z,90.45
2019-05-06T02:59:59.571Z,90.93
2019-05-06T03:01:03.190Z,90.87
2019-05-06T03:02:03.051Z,90.14
2019-05-06T03:02:59.536Z,90.20
2019-05-06T03:03:59.537Z,90.31
2019-05-06T03:04:59.550Z,90.31
2019-05-06T03:05:59.504Z,90.00
2019-05-06T03:06:59.512Z,90.10
2019-05-06T03:07:59.484Z,90.10
2019-05-06T03:08:59.471Z,89.79
2019-05-06T03:09:59.459Z,90.20
2019-05-06T03:10:59.461Z,89.94
2019-05-06T03:11:59.448Z,90.20
2019-05-06T03:12:59.449Z,90.31
2019-05-06T03:13:59.422Z,90.20
2019-05-06T03:14:59.416Z,90.10
2019-05-06T03:15:59.396Z,90.14
2019-05-06T03:16:59.394Z,90.14
2019-05-06T03:17:59.397Z,90.25
2019-05-06T03:18:59.366Z,90.14
2019-05-06T03:19:59.363Z,90.45
2019-05-06T03:20:59.355Z,90.14
2019-05-06T03:21:59.340Z,90.04
2019-05-06T03:22:59.350Z,90.25
2019-05-06T03:23:59.321Z,90.04
2019-05-06T03:24:59.323Z,90.25
2019-05-06T03:25:59.313Z,90.04
2019-05-06T03:26:59.309Z,90.35
2019-05-06T03:27:59.267Z,89.94
2019-05-06T03:28:59.270Z,90.04
2019-05-06T03:29:59.249Z,89.83
2019-05-06T03:30:59.236Z,90.35
2019-05-06T03:31:59.230Z,90.81
2019-05-06T03:33:35.422Z,90.81
2019-05-06T03:34:24.468Z,90.14
2019-05-06T03:35:23.029Z,90.35
2019-05-06T03:36:07.253Z,89.94
2019-05-06T03:37:00.171Z,89.98
2019-05-06T03:37:59.158Z,90.14
2019-05-06T03:38:59.159Z,90.14
2019-05-06T03:39:59.140Z,90.77
2019-05-06T03:40:59.128Z,90.70
2019-05-06T03:41:59.139Z,90.66
2019-05-06T03:42:59.118Z,90.50
2019-05-06T03:43:59.098Z,90.97
2019-05-06T03:44:59.103Z,91.02
2019-05-06T03:45:59.072Z,90.70
2019-05-06T03:46:59.070Z,90.91
2019-05-06T03:47:59.055Z,90.66
2019-05-06T03:48:59.042Z,91.08
2019-05-06T03:49:59.046Z,91.02
2019-05-06T03:50:59.019Z,90.77
2019-05-06T03:51:59.013Z,91.22
2019-05-06T03:52:59.013Z,91.12
2019-05-06T03:53:58.987Z,90.45
2019-05-06T03:54:58.981Z,90.56
2019-05-06T03:55:58.980Z,90.66
2019-05-06T03:56:58.956Z,91.28
2019-05-06T03:57:58.955Z,91.49
2019-05-06T03:58:58.936Z,91.28
2019-05-06T03:59:58.947Z,91.60
2019-05-06T04:00:58.953Z,91.08
2019-05-06T04:01:58.903Z,90.56
2019-05-06T04:02:58.911Z,91.18
2019-05-06T04:03:58.883Z,90.87
2019-05-06T04:04:58.886Z,91.18
2019-05-06T04:05:58.858Z,91.03
2019-05-06T04:06:58.849Z,90.97
2019-05-06T04:07:58.847Z,90.87
2019-05-06T04:08:58.830Z,91.18
2019-05-06T04:09:58.829Z,90.66
2019-05-06T04:10:58.811Z,90.56
2019-05-06T04:11:58.794Z,90.97
2019-05-06T04:12:58.784Z,91.49
2019-05-06T04:13:58.781Z,91.76
2019-05-06T04:14:58.774Z,92.07
2019-05-06T04:15:58.753Z,91.24
2019-05-06T04:16:58.754Z,91.66
2019-05-06T04:17:58.729Z,92.07
2019-05-06T04:18:58.722Z,91.97
2019-05-06T04:19:58.709Z,91.35
2019-05-06T04:20:58.716Z,90.72
2019-05-06T04:21:58.689Z,90.62
2019-05-06T04:22:58.675Z,90.62
2019-05-06T04:23:58.665Z,90.52
2019-05-06T04:24:58.661Z,90.83
2019-05-06T04:25:58.671Z,90.83
2019-05-06T04:26:58.632Z,90.72
2019-05-06T04:27:58.618Z,90.93
2019-05-06T04:28:58.608Z,90.62
2019-05-06T04:29:58.600Z,90.52
2019-05-06T04:30:58.593Z,90.41
2019-05-06T04:31:58.600Z,90.45
2019-05-06T04:32:58.567Z,90.45
2019-05-06T04:34:09.927Z,90.41
2019-05-06T04:34:59.573Z,90.62
2019-05-06T04:35:58.534Z,90.52
2019-05-06T04:36:58.536Z,90.97
2019-05-06T04:37:58.513Z,91.14
2019-05-06T04:38:58.517Z,90.72
2019-05-06T04:39:58.494Z,90.52
2019-05-06T04:40:58.480Z,90.72
2019-05-06T04:41:58.470Z,90.72
2019-05-06T04:42:58.463Z,90.41
2019-05-06T04:43:58.462Z,90.62
2019-05-06T04:44:58.448Z,90.62
2019-05-06T04:45:58.432Z,90.72
2019-05-06T04:46:58.419Z,91.14
2019-05-06T04:47:58.401Z,90.83
2019-05-06T04:48:58.413Z,90.83
2019-05-06T04:49:58.380Z,90.62
2019-05-06T04:50:58.373Z,91.14
2019-05-06T04:51:58.399Z,90.83
2019-05-06T04:52:58.345Z,90.52
2019-05-06T04:53:58.374Z,90.48
2019-05-06T04:54:58.341Z,90.72
2019-05-06T04:55:58.316Z,91.14
2019-05-06T04:56:58.320Z,90.37
2019-05-06T04:57:58.294Z,90.27
2019-05-06T04:58:58.287Z,90.79
2019-05-06T04:59:58.306Z,90.89
2019-05-06T05:00:58.262Z,90.79
2019-05-06T05:01:58.265Z,90.79
2019-05-06T05:02:58.261Z,90.48
2019-05-06T05:03:58.236Z,90.48
2019-05-06T05:04:58.217Z,90.27
2019-05-06T05:06:01.755Z,90.58
2019-05-06T05:06:59.204Z,90.79
2019-05-06T05:07:58.199Z,89.96
2019-05-06T05:08:58.177Z,90.95
2019-05-06T05:09:58.161Z,90.44
2019-05-06T05:10:58.154Z,90.64
2019-05-06T05:11:58.142Z,90.02
2019-05-06T05:12:58.140Z,90.08
2019-05-06T05:13:58.120Z,89.25
2019-05-06T05:14:58.109Z,89.36
2019-05-06T05:15:58.108Z,89.04
2019-05-06T05:16:58.091Z,89.62
2019-05-06T05:17:58.094Z,89.31
2019-05-06T05:18:58.070Z,89.73
2019-05-06T05:19:58.063Z,88.96
2019-05-06T05:20:58.044Z,88.86
2019-05-06T05:21:58.039Z,88.65
2019-05-06T05:22:58.034Z,87.41
2019-05-06T05:23:58.026Z,87.30
2019-05-06T05:24:58.002Z,88.34
2019-05-06T05:25:57.994Z,87.99
2019-05-06T05:26:57.976Z,87.30
2019-05-06T05:27:57.965Z,87.16
2019-05-06T05:28:57.961Z,86.89
2019-05-06T05:29:57.956Z,86.85
2019-05-06T05:30:57.935Z,86.85
2019-05-06T05:31:57.924Z,87.06
2019-05-06T05:32:57.914Z,86.81
2019-05-06T05:33:57.908Z,86.44
2019-05-06T05:34:57.907Z,85.82
2019-05-06T05:35:57.890Z,86.19
2019-05-06T05:36:57.868Z,86.29
2019-05-06T05:37:57.856Z,86.02
2019-05-06T05:38:57.852Z,85.36
2019-05-06T05:39:57.848Z,85.71
2019-05-06T05:40:57.868Z,86.19
2019-05-06T05:41:57.821Z,85.47
2019-05-06T05:42:57.810Z,85.36
2019-05-06T05:43:57.792Z,86.09
2019-05-06T05:44:57.781Z,84.43
2019-05-06T05:45:57.774Z,85.05
2019-05-06T05:46:57.772Z,85.36
2019-05-06T05:47:57.748Z,85.32
2019-05-06T05:48:57.736Z,86.05
2019-05-06T05:49:57.726Z,85.53
2019-05-06T05:50:57.732Z,86.05
2019-05-06T05:51:57.718Z,85.42
2019-05-06T05:52:57.698Z,85.32
2019-05-06T05:53:57.684Z,84.91
2019-05-06T05:54:57.671Z,84.81
2019-05-06T05:55:57.660Z,84.81
2019-05-06T05:56:57.671Z,83.98
2019-05-06T05:57:57.645Z,84.66
2019-05-06T05:58:57.626Z,84.15
2019-05-06T05:59:57.614Z,84.36
2019-05-06T06:00:57.619Z,84.45
2019-05-06T06:01:57.607Z,84.77
2019-05-06T06:02:57.588Z,83.53
2019-05-06T06:03:57.571Z,83.84
2019-05-06T06:04:57.889Z,83.11
2019-05-06T06:05:57.564Z,83.25
2019-05-06T06:06:57.562Z,83.42
2019-05-06T06:07:57.548Z,83.53
2019-05-06T06:08:57.522Z,83.42
2019-05-06T06:09:57.511Z,83.73
2019-05-06T06:10:57.504Z,84.15
2019-05-06T06:11:57.486Z,84.36
2019-05-06T06:12:57.495Z,83.07
2019-05-06T06:13:57.478Z,83.22
2019-05-06T06:14:57.457Z,83.94
2019-05-06T06:15:57.445Z,83.11
2019-05-06T06:16:57.435Z,83.73
2019-05-06T06:17:57.443Z,83.84
2019-05-06T06:18:57.414Z,83.59
2019-05-06T06:19:57.401Z,83.84
2019-05-06T06:20:57.392Z,83.49
2019-05-06T06:21:57.385Z,83.70
2019-05-06T06:22:57.380Z,83.28
2019-05-06T06:23:57.373Z,83.49
2019-05-06T06:24:57.353Z,83.49
2019-05-06T06:25:57.339Z,83.18
2019-05-06T06:26:57.327Z,83.59
2019-05-06T06:27:57.318Z,83.39
2019-05-06T06:28:57.342Z,83.39
2019-05-06T06:29:57.294Z,84.63
2019-05-06T06:30:57.284Z,83.59
2019-05-06T06:31:57.279Z,83.14
2019-05-06T06:32:57.263Z,83.18
2019-05-06T06:33:57.250Z,82.97
2019-05-06T06:35:08.356Z,83.18
2019-05-06T06:35:58.230Z,83.97
2019-05-06T06:36:57.227Z,83.25
2019-05-06T06:37:57.215Z,83.34
2019-05-06T06:38:57.198Z,83.28
2019-05-06T06:39:57.206Z,82.97
2019-05-06T06:40:57.178Z,83.07
2019-05-06T06:41:57.165Z,83.18
2019-05-06T06:42:57.158Z,83.59
2019-05-06T06:43:57.161Z,83.39
2019-05-06T06:44:57.139Z,83.07
2019-05-06T06:45:57.122Z,83.18
2019-05-06T06:46:57.113Z,83.80
2019-05-06T06:47:57.103Z,83.07
2019-05-06T06:48:57.104Z,83.39
2019-05-06T06:49:57.102Z,83.25
2019-05-06T06:50:57.072Z,83.55
2019-05-06T06:51:57.057Z,83.34
2019-05-06T06:52:57.049Z,83.34
2019-05-06T06:53:57.056Z,83.34
2019-05-06T06:54:57.060Z,83.65
2019-05-06T06:55:57.015Z,83.14
2019-05-06T06:57:07.882Z,83.31
2019-05-06T06:57:57.997Z,83.51
2019-05-06T06:58:56.983Z,83.51
2019-05-06T06:59:56.977Z,83.10
2019-05-06T07:00:56.975Z,83.10
2019-05-06T07:01:56.964Z,82.65
2019-05-06T07:02:56.949Z,83.06
2019-05-06T07:03:56.926Z,82.55
2019-05-06T07:04:56.950Z,82.55
2019-05-06T07:05:56.907Z,82.55
2019-05-06T07:06:56.893Z,82.24
2019-05-06T07:07:56.883Z,81.82
2019-05-06T07:08:56.889Z,81.82
2019-05-06T07:09:56.860Z,81.31
2019-05-06T07:10:56.865Z,81.82
2019-05-06T07:11:56.836Z,81.51
2019-05-06T07:12:56.856Z,80.79
2019-05-06T07:13:56.816Z,80.28
2019-05-06T07:14:56.812Z,80.58
2019-05-06T07:15:56.796Z,81.00
2019-05-06T07:16:56.785Z,80.69
2019-05-06T07:17:56.775Z,80.65
2019-05-06T07:18:56.780Z,80.96
2019-05-06T07:19:56.758Z,79.21
2019-05-06T07:20:56.743Z,79.83
2019-05-06T07:21:56.742Z,80.34
2019-05-06T07:22:56.727Z,81.17
2019-05-06T07:23:56.713Z,80.55
2019-05-06T07:24:56.703Z,80.44
2019-05-06T07:25:56.692Z,80.51
2019-05-06T07:26:56.691Z,80.51
2019-05-06T07:27:56.665Z,80.93
2019-05-06T07:28:56.660Z,80.37
2019-05-06T07:29:56.644Z,80.06
2019-05-06T07:30:56.631Z,79.55
2019-05-06T07:31:56.636Z,79.96
2019-05-06T07:32:56.612Z,78.11
2019-05-06T07:33:56.597Z,78.62
2019-05-06T07:34:56.608Z,77.69
2019-05-06T07:35:56.586Z,78.21
2019-05-06T07:36:56.577Z,78.00
2019-05-06T07:37:56.553Z,78.14
2019-05-06T07:38:56.541Z,78.31
2019-05-06T07:39:56.550Z,79.44
2019-05-06T07:40:56.520Z,77.90
2019-05-06T07:41:56.528Z,77.80
2019-05-06T07:42:56.496Z,77.90
2019-05-06T07:43:56.490Z,77.38
2019-05-06T07:44:56.486Z,77.90
2019-05-06T07:45:56.466Z,78.00
2019-05-06T07:46:56.457Z,78.31
2019-05-06T07:47:56.457Z,76.56
2019-05-06T07:48:56.432Z,76.39
2019-05-06T07:49:56.425Z,77.59
2019-05-06T07:50:56.413Z,77.69
2019-05-06T07:51:56.399Z,77.80
2019-05-06T07:52:56.409Z,77.69
2019-05-06T07:53:56.377Z,77.97
2019-05-06T07:54:56.366Z,77.76
2019-05-06T07:55:56.361Z,77.55
2019-05-06T07:56:56.351Z,76.63
2019-05-06T07:57:56.335Z,76.42
2019-05-06T07:58:56.335Z,77.04
2019-05-06T07:59:56.312Z,76.42
2019-05-06T08:00:56.302Z,77.62
2019-05-06T08:01:56.291Z,76.49
2019-05-06T08:02:56.279Z,76.07
2019-05-06T08:03:56.270Z,76.49
2019-05-06T08:04:56.277Z,76.59
2019-05-06T08:05:58.757Z,77.07
2019-05-06T08:06:56.237Z,74.19
2019-05-06T08:07:56.229Z,74.29
2019-05-06T08:08:56.214Z,74.29
2019-05-06T08:09:56.231Z,74.40
2019-05-06T08:10:56.194Z,74.26
2019-05-06T08:11:56.186Z,74.63
2019-05-06T08:12:56.171Z,73.50
2019-05-06T08:13:56.162Z,74.12
2019-05-06T08:14:56.155Z,74.19
2019-05-06T08:15:56.171Z,74.29
2019-05-06T08:16:56.131Z,72.34
2019-05-06T08:17:56.121Z,72.20
2019-05-06T08:18:56.104Z,73.85
2019-05-06T08:19:56.131Z,73.23
2019-05-06T08:20:56.083Z,73.30
2019-05-06T08:21:56.072Z,72.03
2019-05-06T08:22:56.578Z,71.11
2019-05-06T08:23:56.050Z,71.08
2019-05-06T08:24:56.043Z,71.18
2019-05-06T08:26:09.186Z,69.71
2019-05-06T08:26:57.024Z,69.98
2019-05-06T08:27:56.022Z,66.91
2019-05-06T08:28:56.006Z,66.71
2019-05-06T08:29:55.983Z,65.58
2019-05-06T08:30:55.976Z,66.22
2019-05-06T08:31:55.968Z,67.97
2019-05-06T08:32:55.956Z,66.63
2019-05-06T08:33:55.976Z,66.46
2019-05-06T08:34:55.931Z,68.10
2019-05-06T08:36:08.962Z,69.61
2019-05-06T08:36:56.916Z,66.94
2019-05-06T08:37:55.900Z,66.81
2019-05-06T08:38:55.896Z,65.68
2019-05-06T08:39:55.895Z,65.92
2019-05-06T08:40:55.866Z,65.30
2019-05-06T08:41:55.857Z,66.84
2019-05-06T08:42:55.846Z,66.53
2019-05-06T08:43:55.847Z,65.84
2019-05-06T08:44:55.826Z,66.84
2019-05-06T08:45:55.834Z,66.71
2019-05-06T08:46:55.805Z,65.58
2019-05-06T08:47:55.790Z,66.71
2019-05-06T08:48:55.802Z,65.75
2019-05-06T08:49:55.784Z,64.73
2019-05-06T08:50:55.764Z,63.64
2019-05-06T08:51:55.763Z,64.45
2019-05-06T08:52:55.739Z,64.45
2019-05-06T08:53:55.744Z,66.40
2019-05-06T08:54:55.715Z,65.75
2019-05-06T08:55:55.728Z,64.73
2019-05-06T08:56:55.710Z,65.83
2019-05-06T08:57:55.695Z,66.13
2019-05-06T08:58:55.675Z,62.76
2019-05-06T08:59:55.678Z,61.83
2019-05-06T09:00:57.481Z,62.27
2019-05-06T09:01:55.639Z,62.30
2019-05-06T09:02:55.635Z,64.86
2019-05-06T09:04:08.717Z,65.86
2019-05-06T09:04:56.606Z,65.55
2019-05-06T09:05:55.626Z,64.09
2019-05-06T09:06:55.588Z,63.68
2019-05-06T09:07:55.592Z,64.50
2019-05-06T09:08:56.924Z,63.26
2019-05-06T09:09:55.556Z,63.17
2019-05-06T09:10:55.545Z,61.80
2019-05-06T09:11:55.535Z,60.40
2019-05-06T09:12:55.524Z,60.60
2019-05-06T09:13:55.510Z,60.71
2019-05-06T09:14:55.513Z,60.30
2019-05-06T09:15:55.499Z,58.89
2019-05-06T09:16:55.490Z,58.69
2019-05-06T09:17:55.467Z,61.27
2019-05-06T09:18:55.454Z,61.45
2019-05-06T09:19:55.446Z,60.86
2019-05-06T09:20:55.447Z,59.81
2019-05-06T09:21:55.428Z,60.15
2019-05-06T09:22:55.410Z,61.27
2019-05-06T09:23:55.399Z,59.94
2019-05-06T09:24:55.403Z,60.42
2019-05-06T09:25:55.380Z,60.40
2019-05-06T09:26:55.377Z,60.19
2019-05-06T09:27:55.356Z,60.10
2019-05-06T09:28:55.347Z,59.96
2019-05-06T09:29:55.369Z,60.85
2019-05-06T09:30:55.326Z,59.01
2019-05-06T09:31:55.316Z,58.29
2019-05-06T09:32:55.305Z,58.20
2019-05-06T09:33:55.291Z,60.42
2019-05-06T09:34:55.285Z,58.07
2019-05-06T09:35:55.286Z,58.07
2019-05-06T09:36:55.262Z,56.56
2019-05-06T09:37:55.252Z,58.09
2019-05-06T09:38:55.245Z,57.99
2019-05-06T09:39:55.244Z,58.29
2019-05-06T09:40:55.224Z,57.38
2019-05-06T09:41:57.998Z,58.20
2019-05-06T09:42:55.199Z,56.46
2019-05-06T09:43:55.188Z,56.59
2019-05-06T09:44:55.178Z,57.74
2019-05-06T09:45:55.190Z,57.94
2019-05-06T09:46:55.154Z,58.15
2019-05-06T09:47:55.146Z,57.53
2019-05-06T09:48:55.131Z,58.38
2019-05-06T09:49:55.121Z,58.25
2019-05-06T09:50:55.115Z,57.53
2019-05-06T09:51:55.114Z,57.53
2019-05-06T09:52:55.091Z,56.95
2019-05-06T09:53:55.076Z,57.46
2019-05-06T09:54:55.075Z,57.97
2019-05-06T09:55:55.064Z,58.38
2019-05-06T09:56:55.063Z,58.58
2019-05-06T09:57:55.044Z,58.17
2019-05-06T09:58:55.027Z,57.66
2019-05-06T09:59:55.014Z,57.87
2019-05-06T10:00:55.001Z,58.38
2019-05-06T10:01:55.005Z,56.61
2019-05-06T10:02:54.991Z,58.76
2019-05-06T10:03:54.995Z,59.25
2019-05-06T10:04:54.958Z,58.70
2019-05-06T10:05:54.955Z,55.74
2019-05-06T10:06:59.824Z,55.71
2019-05-06T10:07:55.926Z,54.90
2019-05-06T10:08:54.939Z,53.34
2019-05-06T10:09:54.912Z,55.18
2019-05-06T10:10:59.497Z,54.08
2019-05-06T10:11:55.885Z,53.98
2019-05-06T10:12:54.881Z,53.03
2019-05-06T10:13:54.876Z,54.97
2019-05-06T10:14:54.873Z,54.44
2019-05-06T10:15:57.562Z,53.72
2019-05-06T10:16:54.839Z,53.80
2019-05-06T10:17:54.835Z,53.80
2019-05-06T10:18:54.824Z,51.04
2019-05-06T10:19:54.837Z,51.65
2019-05-06T10:20:54.795Z,50.84
2019-05-06T10:21:54.789Z,50.23
2019-05-06T10:22:54.781Z,49.41
2019-05-06T10:23:54.796Z,49.79
2019-05-06T10:24:54.759Z,50.28
2019-05-06T10:25:54.749Z,51.20
2019-05-06T10:26:54.733Z,50.26
2019-05-06T10:27:57.215Z,48.63
2019-05-06T10:28:54.733Z,50.11
2019-05-06T10:29:54.707Z,48.50
2019-05-06T10:30:54.701Z,50.82
2019-05-06T10:31:54.683Z,49.60
2019-05-06T10:32:54.673Z,48.50
2019-05-06T10:33:54.682Z,50.34
2019-05-06T10:34:54.666Z,48.58
2019-05-06T10:35:54.651Z,50.13
2019-05-06T10:36:54.635Z,48.91
2019-05-06T10:37:54.624Z,48.60
2019-05-06T10:38:54.642Z,50.05
2019-05-06T10:39:54.605Z,49.13
2019-05-06T10:41:00.960Z,50.18
2019-05-06T10:41:55.580Z,51.10
2019-05-06T10:42:54.573Z,50.18
2019-05-06T10:43:54.571Z,50.28
2019-05-06T10:44:54.566Z,50.18
2019-05-06T10:45:54.536Z,52.09
2019-05-06T10:46:54.531Z,51.48
2019-05-06T10:47:54.518Z,49.11
2019-05-06T10:48:54.523Z,48.73
2019-05-06T10:49:54.496Z,47.94
2019-05-06T10:50:54.486Z,48.75
2019-05-06T10:51:54.472Z,50.41
2019-05-06T10:52:54.475Z,51.12
2019-05-06T10:53:54.451Z,51.61
2019-05-06T10:54:54.453Z,52.22
2019-05-06T10:55:54.432Z,52.01
2019-05-06T10:56:57.207Z,52.20
2019-05-06T10:57:54.423Z,52.20
2019-05-06T10:58:54.398Z,51.68
2019-05-06T10:59:54.389Z,50.26
2019-05-06T11:00:54.404Z,50.38
2019-05-06T11:02:15.394Z,50.28
2019-05-06T11:02:54.357Z,52.22
2019-05-06T11:03:54.348Z,50.36
2019-05-06T11:04:54.335Z,50.77
2019-05-06T11:05:54.322Z,49.24
2019-05-06T11:06:54.324Z,48.60
2019-05-06T11:07:54.303Z,47.58
2019-05-06T11:08:54.290Z,48.30
2019-05-06T11:09:54.285Z,48.10
2019-05-06T11:10:54.285Z,47.40
2019-05-06T11:11:54.260Z,46.77
2019-05-06T11:12:54.248Z,44.71
2019-05-06T11:13:54.248Z,41.66
2019-05-06T11:14:55.806Z,43.49
2019-05-06T11:15:55.683Z,44.71
2019-05-06T11:16:54.206Z,43.67
2019-05-06T11:17:54.200Z,42.86
2019-05-06T11:18:54.193Z,43.57
2019-05-06T11:19:54.183Z,42.53
2019-05-06T11:20:56.186Z,42.86
2019-05-06T11:21:54.172Z,42.88
2019-05-06T11:22:54.158Z,43.49
2019-05-06T11:23:54.147Z,43.79
2019-05-06T11:24:54.121Z,44.61
2019-05-06T11:25:54.119Z,45.30
2019-05-06T11:26:54.165Z,46.72
2019-05-06T11:27:54.094Z,46.62
2019-05-06T11:28:54.094Z,46.52
2019-05-06T11:29:54.090Z,46.93
2019-05-06T11:30:54.062Z,46.24
2019-05-06T11:31:54.386Z,47.46
2019-05-06T11:32:54.789Z,47.66
2019-05-06T11:33:54.043Z,46.77
2019-05-06T11:34:54.020Z,46.95
2019-05-06T11:35:54.020Z,46.64
2019-05-06T11:36:54.008Z,46.11
2019-05-06T11:37:54.427Z,46.42
2019-05-06T11:38:53.988Z,45.00
2019-05-06T11:39:53.969Z,44.31
2019-05-06T11:40:53.952Z,44.10
2019-05-06T11:42:14.831Z,46.15
2019-05-06T11:42:54.942Z,46.44
2019-05-06T11:43:53.939Z,46.75
2019-05-06T11:44:53.928Z,48.38
2019-05-06T11:45:53.895Z,46.75
2019-05-06T11:46:53.916Z,46.64
2019-05-06T11:47:55.793Z,47.36
2019-05-06T11:48:53.864Z,48.19
2019-05-06T11:49:56.272Z,48.11
2019-05-06T11:50:53.848Z,48.96
2019-05-06T11:51:53.836Z,50.18
2019-05-06T11:52:55.905Z,50.28
2019-05-06T11:53:54.277Z,49.98
2019-05-06T11:54:53.803Z,50.28
2019-05-06T11:55:54.933Z,50.38
2019-05-06T11:56:58.229Z,49.57
2019-05-06T11:57:53.780Z,49.57
2019-05-06T11:58:53.755Z,48.85
2019-05-06T11:59:53.751Z,48.44
2019-05-06T12:00:53.736Z,50.18
2019-05-06T12:01:53.726Z,49.87
2019-05-06T12:02:53.728Z,50.67
2019-05-06T12:03:53.699Z,49.24
2019-05-06T12:04:53.689Z,49.24
2019-05-06T12:05:53.677Z,47.00
2019-05-06T12:07:09.212Z,46.89
2019-05-06T12:08:06.921Z,48.22
2019-05-06T12:08:54.650Z,48.22
2019-05-06T12:09:54.400Z,50.05
2019-05-06T12:10:53.627Z,48.22
2019-05-06T12:11:53.612Z,48.50
2019-05-06T12:12:53.601Z,48.42
2019-05-06T12:13:53.604Z,49.13
2019-05-06T12:14:53.581Z,49.46
2019-05-06T12:15:53.572Z,51.40
2019-05-06T12:16:55.147Z,51.10
2019-05-06T12:17:53.623Z,50.41
2019-05-06T12:18:53.542Z,51.15
2019-05-06T12:19:53.540Z,51.86
2019-05-06T12:20:53.523Z,53.19
2019-05-06T12:21:53.503Z,53.21
2019-05-06T12:22:53.505Z,52.11
2019-05-06T12:23:53.934Z,52.83
2019-05-06T12:24:53.471Z,51.91
2019-05-06T12:25:53.459Z,51.53
2019-05-06T12:26:53.448Z,52.95
2019-05-06T12:27:53.450Z,52.44
2019-05-06T12:28:53.472Z,53.47
2019-05-06T12:29:53.417Z,53.16
2019-05-06T12:30:53.406Z,53.28
2019-05-06T12:31:53.396Z,53.98
2019-05-06T12:32:53.417Z,53.16
2019-05-06T12:33:53.607Z,52.75
2019-05-06T12:34:53.360Z,53.19
2019-05-06T12:35:53.354Z,54.31
2019-05-06T12:36:53.345Z,55.33
2019-05-06T12:37:53.334Z,55.97
2019-05-06T12:38:53.344Z,56.56
2019-05-06T12:39:53.528Z,56.48
2019-05-06T12:40:53.295Z,57.48
2019-05-06T12:41:53.590Z,58.12
2019-05-06T12:42:53.664Z,58.22
2019-05-06T12:43:53.261Z,58.29
2019-05-06T12:44:53.263Z,58.12
2019-05-06T12:45:53.242Z,58.73
2019-05-06T12:46:53.323Z,59.17
2019-05-06T12:47:53.518Z,59.17
2019-05-06T12:48:53.212Z,60.10
2019-05-06T12:49:53.555Z,59.99
2019-05-06T12:50:53.184Z,61.11
2019-05-06T12:51:53.766Z,60.06